sensor_id;sensor_type;location;lat;lon;timestamp;P1;durP1;ratioP1;P2;durP2;ratioP2
4214;SDS011;2121;48.062;7.850;2023-08-21T00:00:08;14.80;;;10.20;;
4214;SDS011;2121;48.062;7.850;2023-08-21T00:02:35;11.30;;;10.20;;
4214;SDS011;2121;48.062;7.850;2023-08-21T00:05:00;10.80;;;9.73;;
4214;SDS011;2121;48.062;7.850;2023-08-21T00:07:26;9.97;;;8.97;;
4214;SDS011;2121;48.062;7.850;2023-08-21T00:09:52;10.00;;;8.93;;
4214;SDS011;2121;48.062;7.850;2023-08-21T00:12:17;11.73;;;9.23;;
4214;SDS011;2121;48.062;7.850;2023-08-21T00:14:43;12.87;;;9.60;;
4214;SDS011;2121;48.062;7.850;2023-08-21T00:17:09;10.80;;;9.00;;
4214;SDS011;2121;48.062;7.850;2023-08-21T00:19:35;10.83;;;9.23;;
4214;SDS011;2121;48.062;7.850;2023-08-21T00:22:00;11.30;;;10.13;;
4214;SDS011;2121;48.062;7.850;2023-08-21T00:24:26;12.03;;;10.83;;
4214;SDS011;2121;48.062;7.850;2023-08-21T00:26:52;11.50;;;10.30;;
4214;SDS011;2121;48.062;7.850;2023-08-21T00:29:18;12.30;;;10.47;;
4214;SDS011;2121;48.062;7.850;2023-08-21T00:31:43;12.50;;;10.90;;
4214;SDS011;2121;48.062;7.850;2023-08-21T00:34:09;15.00;;;10.60;;
4214;SDS011;2121;48.062;7.850;2023-08-21T00:36:36;16.10;;;10.53;;
4214;SDS011;2121;48.062;7.850;2023-08-21T00:39:02;13.90;;;11.50;;
4214;SDS011;2121;48.062;7.850;2023-08-21T00:41:27;12.33;;;11.10;;
4214;SDS011;2121;48.062;7.850;2023-08-21T00:43:53;12.87;;;11.53;;
4214;SDS011;2121;48.062;7.850;2023-08-21T00:46:19;13.67;;;10.93;;
4214;SDS011;2121;48.062;7.850;2023-08-21T00:48:45;15.20;;;11.00;;
4214;SDS011;2121;48.062;7.850;2023-08-21T00:51:11;11.70;;;10.50;;
4214;SDS011;2121;48.062;7.850;2023-08-21T00:53:40;20.60;;;12.07;;
4214;SDS011;2121;48.062;7.850;2023-08-21T00:56:07;11.70;;;10.60;;
4214;SDS011;2121;48.062;7.850;2023-08-21T00:58:33;18.87;;;11.40;;
4214;SDS011;2121;48.062;7.850;2023-08-21T01:00:59;11.43;;;10.30;;
4214;SDS011;2121;48.062;7.850;2023-08-21T01:03:25;11.33;;;10.30;;
4214;SDS011;2121;48.062;7.850;2023-08-21T01:05:51;14.63;;;10.37;;
4214;SDS011;2121;48.062;7.850;2023-08-21T01:13:34;11.93;;;10.73;;
4214;SDS011;2121;48.062;7.850;2023-08-21T01:16:16;11.53;;;10.43;;
4214;SDS011;2121;48.062;7.850;2023-08-21T01:18:43;21.03;;;11.07;;
4214;SDS011;2121;48.062;7.850;2023-08-21T01:21:10;13.73;;;11.33;;
4214;SDS011;2121;48.062;7.850;2023-08-21T01:23:37;13.60;;;11.50;;
4214;SDS011;2121;48.062;7.850;2023-08-21T01:26:03;15.00;;;10.20;;
4214;SDS011;2121;48.062;7.850;2023-08-21T01:28:30;12.07;;;10.00;;
4214;SDS011;2121;48.062;7.850;2023-08-21T01:31:08;16.80;;;11.20;;
4214;SDS011;2121;48.062;7.850;2023-08-21T01:33:44;14.03;;;11.37;;
4214;SDS011;2121;48.062;7.850;2023-08-21T01:36:13;14.10;;;11.17;;
4214;SDS011;2121;48.062;7.850;2023-08-21T01:38:40;14.63;;;12.03;;
4214;SDS011;2121;48.062;7.850;2023-08-21T01:41:06;12.00;;;10.70;;
4214;SDS011;2121;48.062;7.850;2023-08-21T01:43:32;14.20;;;10.73;;
4214;SDS011;2121;48.062;7.850;2023-08-21T01:45:58;11.97;;;10.87;;
4214;SDS011;2121;48.062;7.850;2023-08-21T01:48:23;11.50;;;10.40;;
4214;SDS011;2121;48.062;7.850;2023-08-21T01:50:49;11.87;;;10.60;;
4214;SDS011;2121;48.062;7.850;2023-08-21T01:53:15;17.77;;;10.47;;
4214;SDS011;2121;48.062;7.850;2023-08-21T01:55:40;12.33;;;11.10;;
4214;SDS011;2121;48.062;7.850;2023-08-21T01:58:06;14.00;;;11.10;;
4214;SDS011;2121;48.062;7.850;2023-08-21T02:00:32;14.20;;;10.27;;
4214;SDS011;2121;48.062;7.850;2023-08-21T02:02:57;14.90;;;10.27;;
4214;SDS011;2121;48.062;7.850;2023-08-21T02:05:23;17.27;;;11.33;;
4214;SDS011;2121;48.062;7.850;2023-08-21T02:07:49;11.83;;;10.50;;
4214;SDS011;2121;48.062;7.850;2023-08-21T02:10:15;20.17;;;12.20;;
4214;SDS011;2121;48.062;7.850;2023-08-21T02:12:40;12.33;;;11.03;;
4214;SDS011;2121;48.062;7.850;2023-08-21T02:15:06;12.47;;;11.10;;
4214;SDS011;2121;48.062;7.850;2023-08-21T02:17:33;13.37;;;12.00;;
4214;SDS011;2121;48.062;7.850;2023-08-21T02:19:58;12.60;;;11.30;;
4214;SDS011;2121;48.062;7.850;2023-08-21T02:22:24;12.17;;;11.00;;
4214;SDS011;2121;48.062;7.850;2023-08-21T02:24:50;14.23;;;10.83;;
4214;SDS011;2121;48.062;7.850;2023-08-21T02:27:15;12.23;;;10.80;;
4214;SDS011;2121;48.062;7.850;2023-08-21T02:29:41;16.23;;;12.37;;
4214;SDS011;2121;48.062;7.850;2023-08-21T02:32:07;13.03;;;11.67;;
4214;SDS011;2121;48.062;7.850;2023-08-21T02:34:32;13.17;;;11.77;;
4214;SDS011;2121;48.062;7.850;2023-08-21T02:36:58;12.77;;;11.53;;
4214;SDS011;2121;48.062;7.850;2023-08-21T02:39:24;12.67;;;10.57;;
4214;SDS011;2121;48.062;7.850;2023-08-21T02:41:49;14.73;;;12.07;;
4214;SDS011;2121;48.062;7.850;2023-08-21T02:44:15;13.90;;;11.27;;
4214;SDS011;2121;48.062;7.850;2023-08-21T02:46:40;13.23;;;10.97;;
4214;SDS011;2121;48.062;7.850;2023-08-21T02:49:06;14.40;;;10.87;;
4214;SDS011;2121;48.062;7.850;2023-08-21T02:51:32;14.70;;;11.47;;
4214;SDS011;2121;48.062;7.850;2023-08-21T02:53:58;13.87;;;10.23;;
4214;SDS011;2121;48.062;7.850;2023-08-21T02:56:23;12.43;;;11.00;;
4214;SDS011;2121;48.062;7.850;2023-08-21T02:58:49;11.70;;;10.50;;
4214;SDS011;2121;48.062;7.850;2023-08-21T03:01:15;14.70;;;11.80;;
4214;SDS011;2121;48.062;7.850;2023-08-21T03:03:42;15.17;;;11.77;;
4214;SDS011;2121;48.062;7.850;2023-08-21T03:06:07;12.60;;;10.27;;
4214;SDS011;2121;48.062;7.850;2023-08-21T03:08:33;12.80;;;11.40;;
4214;SDS011;2121;48.062;7.850;2023-08-21T03:10:59;12.37;;;11.10;;
4214;SDS011;2121;48.062;7.850;2023-08-21T03:13:24;12.77;;;11.47;;
4214;SDS011;2121;48.062;7.850;2023-08-21T03:15:50;12.80;;;11.13;;
4214;SDS011;2121;48.062;7.850;2023-08-21T03:18:16;13.20;;;11.17;;
4214;SDS011;2121;48.062;7.850;2023-08-21T03:20:45;14.97;;;12.13;;
4214;SDS011;2121;48.062;7.850;2023-08-21T03:23:11;14.80;;;12.07;;
4214;SDS011;2121;48.062;7.850;2023-08-21T03:25:38;12.30;;;11.00;;
4214;SDS011;2121;48.062;7.850;2023-08-21T03:28:04;12.70;;;11.40;;
4214;SDS011;2121;48.062;7.850;2023-08-21T03:30:29;17.83;;;12.30;;
4214;SDS011;2121;48.062;7.850;2023-08-21T03:32:55;15.90;;;11.50;;
4214;SDS011;2121;48.062;7.850;2023-08-21T03:35:21;13.00;;;11.70;;
4214;SDS011;2121;48.062;7.850;2023-08-21T03:37:47;11.97;;;10.80;;
4214;SDS011;2121;48.062;7.850;2023-08-21T03:40:12;18.47;;;11.63;;
4214;SDS011;2121;48.062;7.850;2023-08-21T03:42:38;12.40;;;11.10;;
4214;SDS011;2121;48.062;7.850;2023-08-21T03:45:04;13.27;;;11.97;;
4214;SDS011;2121;48.062;7.850;2023-08-21T03:47:30;12.43;;;11.20;;
4214;SDS011;2121;48.062;7.850;2023-08-21T03:49:57;12.40;;;11.10;;
4214;SDS011;2121;48.062;7.850;2023-08-21T03:52:23;13.43;;;12.03;;
4214;SDS011;2121;48.062;7.850;2023-08-21T03:54:49;19.93;;;9.87;;
4214;SDS011;2121;48.062;7.850;2023-08-21T03:57:14;14.60;;;10.70;;
4214;SDS011;2121;48.062;7.850;2023-08-21T03:59:40;17.00;;;11.27;;
4214;SDS011;2121;48.062;7.850;2023-08-21T04:02:06;16.80;;;11.80;;
4214;SDS011;2121;48.062;7.850;2023-08-21T04:04:31;14.10;;;12.03;;
4214;SDS011;2121;48.062;7.850;2023-08-21T04:06:57;15.40;;;10.50;;
4214;SDS011;2121;48.062;7.850;2023-08-21T04:09:23;16.03;;;11.60;;
4214;SDS011;2121;48.062;7.850;2023-08-21T04:11:48;12.87;;;11.10;;
4214;SDS011;2121;48.062;7.850;2023-08-21T04:14:14;12.00;;;10.90;;
4214;SDS011;2121;48.062;7.850;2023-08-21T04:16:40;13.87;;;10.73;;
4214;SDS011;2121;48.062;7.850;2023-08-21T04:19:05;13.33;;;12.00;;
4214;SDS011;2121;48.062;7.850;2023-08-21T04:21:31;18.10;;;12.07;;
4214;SDS011;2121;48.062;7.850;2023-08-21T04:23:57;15.50;;;11.57;;
4214;SDS011;2121;48.062;7.850;2023-08-21T04:26:23;15.40;;;11.70;;
4214;SDS011;2121;48.062;7.850;2023-08-21T04:28:48;13.17;;;11.87;;
4214;SDS011;2121;48.062;7.850;2023-08-21T04:31:14;14.33;;;11.57;;
4214;SDS011;2121;48.062;7.850;2023-08-21T04:33:40;16.03;;;11.40;;
4214;SDS011;2121;48.062;7.850;2023-08-21T04:36:05;14.37;;;11.33;;
4214;SDS011;2121;48.062;7.850;2023-08-21T04:38:31;14.43;;;10.53;;
4214;SDS011;2121;48.062;7.850;2023-08-21T04:41:05;10.90;;;9.90;;
4214;SDS011;2121;48.062;7.850;2023-08-21T04:43:32;11.27;;;10.00;;
4214;SDS011;2121;48.062;7.850;2023-08-21T04:45:58;11.77;;;9.40;;
4214;SDS011;2121;48.062;7.850;2023-08-21T04:48:24;10.83;;;9.73;;
4214;SDS011;2121;48.062;7.850;2023-08-21T04:50:50;14.80;;;9.97;;
4214;SDS011;2121;48.062;7.850;2023-08-21T04:53:15;9.90;;;8.80;;
4214;SDS011;2121;48.062;7.850;2023-08-21T04:55:41;12.03;;;10.80;;
4214;SDS011;2121;48.062;7.850;2023-08-21T04:58:07;10.20;;;9.20;;
4214;SDS011;2121;48.062;7.850;2023-08-21T05:00:34;10.20;;;9.30;;
4214;SDS011;2121;48.062;7.850;2023-08-21T05:03:00;12.17;;;10.93;;
4214;SDS011;2121;48.062;7.850;2023-08-21T05:05:26;11.17;;;10.03;;
4214;SDS011;2121;48.062;7.850;2023-08-21T05:07:52;17.50;;;10.70;;
4214;SDS011;2121;48.062;7.850;2023-08-21T05:10:18;12.43;;;10.53;;
4214;SDS011;2121;48.062;7.850;2023-08-21T05:12:44;11.53;;;9.67;;
4214;SDS011;2121;48.062;7.850;2023-08-21T05:15:11;12.93;;;10.80;;
4214;SDS011;2121;48.062;7.850;2023-08-21T05:17:37;11.17;;;10.13;;
4214;SDS011;2121;48.062;7.850;2023-08-21T05:20:03;11.83;;;10.73;;
4214;SDS011;2121;48.062;7.850;2023-08-21T05:22:29;16.20;;;11.27;;
4214;SDS011;2121;48.062;7.850;2023-08-21T05:24:55;13.13;;;10.23;;
4214;SDS011;2121;48.062;7.850;2023-08-21T05:27:20;15.37;;;10.80;;
4214;SDS011;2121;48.062;7.850;2023-08-21T05:29:46;15.63;;;11.33;;
4214;SDS011;2121;48.062;7.850;2023-08-21T05:32:14;12.50;;;10.00;;
4214;SDS011;2121;48.062;7.850;2023-08-21T05:34:39;12.80;;;10.57;;
4214;SDS011;2121;48.062;7.850;2023-08-21T05:37:05;17.60;;;12.47;;
4214;SDS011;2121;48.062;7.850;2023-08-21T05:39:31;12.23;;;11.03;;
4214;SDS011;2121;48.062;7.850;2023-08-21T05:41:58;16.00;;;10.33;;
4214;SDS011;2121;48.062;7.850;2023-08-21T05:44:24;12.07;;;10.80;;
4214;SDS011;2121;48.062;7.850;2023-08-21T05:46:50;11.70;;;9.63;;
4214;SDS011;2121;48.062;7.850;2023-08-21T05:49:15;11.53;;;10.37;;
4214;SDS011;2121;48.062;7.850;2023-08-21T05:51:41;20.27;;;11.20;;
4214;SDS011;2121;48.062;7.850;2023-08-21T05:54:07;13.13;;;11.20;;
4214;SDS011;2121;48.062;7.850;2023-08-21T05:56:32;13.47;;;10.90;;
4214;SDS011;2121;48.062;7.850;2023-08-21T05:58:58;13.67;;;12.10;;
4214;SDS011;2121;48.062;7.850;2023-08-21T06:01:24;14.47;;;10.40;;
4214;SDS011;2121;48.062;7.850;2023-08-21T06:03:49;9.70;;;8.73;;
4214;SDS011;2121;48.062;7.850;2023-08-21T06:06:15;11.20;;;10.20;;
4214;SDS011;2121;48.062;7.850;2023-08-21T06:08:41;10.27;;;9.20;;
4214;SDS011;2121;48.062;7.850;2023-08-21T06:11:07;10.93;;;9.80;;
4214;SDS011;2121;48.062;7.850;2023-08-21T06:13:32;13.70;;;9.50;;
4214;SDS011;2121;48.062;7.850;2023-08-21T06:15:58;13.07;;;10.93;;
4214;SDS011;2121;48.062;7.850;2023-08-21T06:18:24;12.50;;;9.57;;
4214;SDS011;2121;48.062;7.850;2023-08-21T06:20:49;11.23;;;10.20;;
4214;SDS011;2121;48.062;7.850;2023-08-21T06:23:19;11.77;;;10.63;;
4214;SDS011;2121;48.062;7.850;2023-08-21T06:25:47;12.30;;;10.40;;
4214;SDS011;2121;48.062;7.850;2023-08-21T06:28:15;11.90;;;9.90;;
4214;SDS011;2121;48.062;7.850;2023-08-21T06:30:41;14.33;;;10.57;;
4214;SDS011;2121;48.062;7.850;2023-08-21T06:33:07;15.40;;;10.90;;
4214;SDS011;2121;48.062;7.850;2023-08-21T06:35:35;14.60;;;9.83;;
4214;SDS011;2121;48.062;7.850;2023-08-21T06:38:02;17.90;;;10.90;;
4214;SDS011;2121;48.062;7.850;2023-08-21T06:40:28;15.10;;;10.73;;
4214;SDS011;2121;48.062;7.850;2023-08-21T06:42:54;11.50;;;10.40;;
4214;SDS011;2121;48.062;7.850;2023-08-21T06:45:20;12.47;;;10.40;;
4214;SDS011;2121;48.062;7.850;2023-08-21T06:47:46;13.20;;;10.77;;
4214;SDS011;2121;48.062;7.850;2023-08-21T06:50:12;13.93;;;11.57;;
4214;SDS011;2121;48.062;7.850;2023-08-21T06:52:38;12.27;;;11.07;;
4214;SDS011;2121;48.062;7.850;2023-08-21T06:55:04;17.80;;;11.03;;
4214;SDS011;2121;48.062;7.850;2023-08-21T06:57:31;11.50;;;9.70;;
4214;SDS011;2121;48.062;7.850;2023-08-21T06:59:56;10.40;;;9.30;;
4214;SDS011;2121;48.062;7.850;2023-08-21T07:02:22;11.37;;;10.20;;
4214;SDS011;2121;48.062;7.850;2023-08-21T07:04:48;12.87;;;10.20;;
4214;SDS011;2121;48.062;7.850;2023-08-21T07:07:13;11.73;;;10.60;;
4214;SDS011;2121;48.062;7.850;2023-08-21T07:09:39;10.93;;;9.70;;
4214;SDS011;2121;48.062;7.850;2023-08-21T07:12:05;12.27;;;11.07;;
4214;SDS011;2121;48.062;7.850;2023-08-21T07:14:32;13.27;;;10.20;;
4214;SDS011;2121;48.062;7.850;2023-08-21T07:16:57;12.07;;;10.20;;
4214;SDS011;2121;48.062;7.850;2023-08-21T07:19:23;13.83;;;10.77;;
4214;SDS011;2121;48.062;7.850;2023-08-21T07:21:49;13.00;;;10.93;;
4214;SDS011;2121;48.062;7.850;2023-08-21T07:24:14;13.10;;;11.33;;
4214;SDS011;2121;48.062;7.850;2023-08-21T07:26:40;14.10;;;11.07;;
4214;SDS011;2121;48.062;7.850;2023-08-21T07:29:06;11.97;;;10.20;;
4214;SDS011;2121;48.062;7.850;2023-08-21T07:31:32;10.90;;;9.47;;
4214;SDS011;2121;48.062;7.850;2023-08-21T07:33:59;16.73;;;10.63;;
4214;SDS011;2121;48.062;7.850;2023-08-21T07:36:25;11.87;;;10.77;;
4214;SDS011;2121;48.062;7.850;2023-08-21T07:38:50;16.75;;;11.40;;
4214;SDS011;2121;48.062;7.850;2023-08-21T07:41:16;11.93;;;10.73;;
4214;SDS011;2121;48.062;7.850;2023-08-21T07:43:42;14.93;;;10.20;;
4214;SDS011;2121;48.062;7.850;2023-08-21T07:46:10;12.30;;;10.80;;
4214;SDS011;2121;48.062;7.850;2023-08-21T07:48:44;13.30;;;9.48;;
4214;SDS011;2121;48.062;7.850;2023-08-21T07:51:10;19.38;;;10.50;;
4214;SDS011;2121;48.062;7.850;2023-08-21T07:53:36;11.68;;;10.48;;
4214;SDS011;2121;48.062;7.850;2023-08-21T07:56:03;14.32;;;10.52;;
4214;SDS011;2121;48.062;7.850;2023-08-21T07:58:29;11.68;;;9.98;;
4214;SDS011;2121;48.062;7.850;2023-08-21T08:00:56;11.93;;;10.82;;
4214;SDS011;2121;48.062;7.850;2023-08-21T08:03:22;12.23;;;11.00;;
4214;SDS011;2121;48.062;7.850;2023-08-21T08:05:48;27.20;;;10.43;;
4214;SDS011;2121;48.062;7.850;2023-08-21T08:08:13;11.25;;;9.93;;
4214;SDS011;2121;48.062;7.850;2023-08-21T08:10:41;12.85;;;10.43;;
4214;SDS011;2121;48.062;7.850;2023-08-21T08:13:07;11.70;;;9.90;;
4214;SDS011;2121;48.062;7.850;2023-08-21T08:15:33;11.30;;;10.20;;
4214;SDS011;2121;48.062;7.850;2023-08-21T08:18:00;13.98;;;10.45;;
4214;SDS011;2121;48.062;7.850;2023-08-21T08:20:30;13.50;;;11.02;;
4214;SDS011;2121;48.062;7.850;2023-08-21T08:22:56;11.77;;;9.88;;
4214;SDS011;2121;48.062;7.850;2023-08-21T08:25:22;21.23;;;10.70;;
4214;SDS011;2121;48.062;7.850;2023-08-21T08:27:48;14.57;;;10.45;;
4214;SDS011;2121;48.062;7.850;2023-08-21T08:30:14;11.65;;;10.30;;
4214;SDS011;2121;48.062;7.850;2023-08-21T08:32:42;10.60;;;9.40;;
4214;SDS011;2121;48.062;7.850;2023-08-21T08:35:10;12.85;;;10.38;;
4214;SDS011;2121;48.062;7.850;2023-08-21T08:37:40;10.32;;;9.32;;
4214;SDS011;2121;48.062;7.850;2023-08-21T08:40:09;11.00;;;9.90;;
4214;SDS011;2121;48.062;7.850;2023-08-21T08:42:36;12.57;;;9.05;;
4214;SDS011;2121;48.062;7.850;2023-08-21T08:45:03;10.48;;;9.30;;
4214;SDS011;2121;48.062;7.850;2023-08-21T08:47:33;10.73;;;9.73;;
4214;SDS011;2121;48.062;7.850;2023-08-21T08:50:01;10.38;;;9.10;;
4214;SDS011;2121;48.062;7.850;2023-08-21T08:52:37;10.25;;;9.23;;
4214;SDS011;2121;48.062;7.850;2023-08-21T08:55:04;12.60;;;9.25;;
4214;SDS011;2121;48.062;7.850;2023-08-21T08:57:36;10.63;;;9.63;;
4214;SDS011;2121;48.062;7.850;2023-08-21T09:00:02;9.32;;;8.43;;
4214;SDS011;2121;48.062;7.850;2023-08-21T09:02:29;16.98;;;9.93;;
4214;SDS011;2121;48.062;7.850;2023-08-21T09:04:55;11.38;;;9.13;;
4214;SDS011;2121;48.062;7.850;2023-08-21T09:07:20;12.68;;;9.55;;
4214;SDS011;2121;48.062;7.850;2023-08-21T09:09:47;11.60;;;8.90;;
4214;SDS011;2121;48.062;7.850;2023-08-21T09:12:16;9.88;;;8.75;;
4214;SDS011;2121;48.062;7.850;2023-08-21T09:14:43;15.98;;;8.73;;
4214;SDS011;2121;48.062;7.850;2023-08-21T09:17:09;11.75;;;8.95;;
4214;SDS011;2121;48.062;7.850;2023-08-21T09:19:36;10.40;;;8.90;;
4214;SDS011;2121;48.062;7.850;2023-08-21T09:22:07;10.82;;;9.23;;
4214;SDS011;2121;48.062;7.850;2023-08-21T09:24:59;9.63;;;8.43;;
4214;SDS011;2121;48.062;7.850;2023-08-21T09:27:35;9.20;;;8.30;;
4214;SDS011;2121;48.062;7.850;2023-08-21T09:30:09;9.48;;;8.55;;
4214;SDS011;2121;48.062;7.850;2023-08-21T09:32:52;9.57;;;7.97;;
4214;SDS011;2121;48.062;7.850;2023-08-21T09:35:19;10.88;;;7.85;;
4214;SDS011;2121;48.062;7.850;2023-08-21T09:37:46;11.60;;;7.78;;
4214;SDS011;2121;48.062;7.850;2023-08-21T09:40:12;10.25;;;9.23;;
4214;SDS011;2121;48.062;7.850;2023-08-21T09:42:41;11.45;;;8.73;;
4214;SDS011;2121;48.062;7.850;2023-08-21T09:45:07;12.05;;;7.55;;
4214;SDS011;2121;48.062;7.850;2023-08-21T09:47:33;12.30;;;8.82;;
4214;SDS011;2121;48.062;7.850;2023-08-21T09:50:00;9.45;;;7.97;;
4214;SDS011;2121;48.062;7.850;2023-08-21T09:52:26;11.05;;;7.50;;
4214;SDS011;2121;48.062;7.850;2023-08-21T09:54:53;10.73;;;7.22;;
4214;SDS011;2121;48.062;7.850;2023-08-21T09:57:22;12.90;;;7.93;;
4214;SDS011;2121;48.062;7.850;2023-08-21T09:59:52;8.52;;;7.75;;
4214;SDS011;2121;48.062;7.850;2023-08-21T10:02:20;7.03;;;6.53;;
4214;SDS011;2121;48.062;7.850;2023-08-21T10:04:48;11.23;;;7.38;;
4214;SDS011;2121;48.062;7.850;2023-08-21T10:07:15;8.85;;;7.40;;
4214;SDS011;2121;48.062;7.850;2023-08-21T10:09:45;9.00;;;8.23;;
4214;SDS011;2121;48.062;7.850;2023-08-21T10:12:13;9.75;;;7.90;;
4214;SDS011;2121;48.062;7.850;2023-08-21T10:14:40;11.35;;;7.95;;
4214;SDS011;2121;48.062;7.850;2023-08-21T10:17:07;8.20;;;7.30;;
4214;SDS011;2121;48.062;7.850;2023-08-21T10:19:33;8.85;;;7.18;;
4214;SDS011;2121;48.062;7.850;2023-08-21T10:22:00;12.55;;;8.27;;
4214;SDS011;2121;48.062;7.850;2023-08-21T10:24:37;14.45;;;8.10;;
4214;SDS011;2121;48.062;7.850;2023-08-21T10:27:06;9.70;;;7.20;;
4214;SDS011;2121;48.062;7.850;2023-08-21T10:29:32;8.30;;;7.50;;
4214;SDS011;2121;48.062;7.850;2023-08-21T10:31:59;10.93;;;7.50;;
4214;SDS011;2121;48.062;7.850;2023-08-21T10:34:31;6.85;;;6.35;;
4214;SDS011;2121;48.062;7.850;2023-08-21T10:37:06;7.47;;;6.88;;
4214;SDS011;2121;48.062;7.850;2023-08-21T10:39:37;9.93;;;7.32;;
4214;SDS011;2121;48.062;7.850;2023-08-21T10:47:14;9.02;;;6.75;;
4214;SDS011;2121;48.062;7.850;2023-08-21T10:49:41;8.23;;;7.13;;
4214;SDS011;2121;48.062;7.850;2023-08-21T10:52:11;8.00;;;7.20;;
4214;SDS011;2121;48.062;7.850;2023-08-21T10:54:47;13.98;;;6.88;;
4214;SDS011;2121;48.062;7.850;2023-08-21T10:57:16;7.45;;;6.85;;
4214;SDS011;2121;48.062;7.850;2023-08-21T11:00:05;9.77;;;7.45;;
4214;SDS011;2121;48.062;7.850;2023-08-21T11:02:37;7.22;;;6.13;;
4214;SDS011;2121;48.062;7.850;2023-08-21T11:05:12;8.15;;;7.30;;
4214;SDS011;2121;48.062;7.850;2023-08-21T11:07:40;7.95;;;7.15;;
4214;SDS011;2121;48.062;7.850;2023-08-21T11:10:12;10.90;;;8.20;;
4214;SDS011;2121;48.062;7.850;2023-08-21T11:15:23;8.45;;;7.60;;
4214;SDS011;2121;48.062;7.850;2023-08-21T11:18:01;10.27;;;7.70;;
4214;SDS011;2121;48.062;7.850;2023-08-21T11:20:31;8.07;;;7.28;;
4214;SDS011;2121;48.062;7.850;2023-08-21T11:23:02;7.97;;;6.85;;
4214;SDS011;2121;48.062;7.850;2023-08-21T11:25:31;7.63;;;6.78;;
4214;SDS011;2121;48.062;7.850;2023-08-21T11:27:58;7.82;;;7.07;;
4214;SDS011;2121;48.062;7.850;2023-08-21T11:30:27;6.40;;;5.90;;
4214;SDS011;2121;48.062;7.850;2023-08-21T11:33:06;7.68;;;6.97;;
4214;SDS011;2121;48.062;7.850;2023-08-21T11:35:36;8.02;;;6.13;;
4214;SDS011;2121;48.062;7.850;2023-08-21T11:38:03;7.05;;;6.50;;
4214;SDS011;2121;48.062;7.850;2023-08-21T11:40:29;7.70;;;7.00;;
4214;SDS011;2121;48.062;7.850;2023-08-21T11:43:01;9.60;;;7.47;;
4214;SDS011;2121;48.062;7.850;2023-08-21T11:45:28;9.23;;;6.53;;
4214;SDS011;2121;48.062;7.850;2023-08-21T11:47:57;15.30;;;6.30;;
4214;SDS011;2121;48.062;7.850;2023-08-21T11:50:23;6.95;;;6.25;;
4214;SDS011;2121;48.062;7.850;2023-08-21T11:52:51;6.43;;;5.82;;
4214;SDS011;2121;48.062;7.850;2023-08-21T11:55:17;6.63;;;6.03;;
4214;SDS011;2121;48.062;7.850;2023-08-21T11:57:50;11.77;;;7.13;;
4214;SDS011;2121;48.062;7.850;2023-08-21T12:00:17;6.88;;;6.18;;
4214;SDS011;2121;48.062;7.850;2023-08-21T12:02:54;9.48;;;5.90;;
4214;SDS011;2121;48.062;7.850;2023-08-21T12:05:26;7.07;;;6.38;;
4214;SDS011;2121;48.062;7.850;2023-08-21T12:07:53;6.57;;;6.03;;
4214;SDS011;2121;48.062;7.850;2023-08-21T12:10:29;11.02;;;6.80;;
4214;SDS011;2121;48.062;7.850;2023-08-21T12:12:55;8.88;;;5.82;;
4214;SDS011;2121;48.062;7.850;2023-08-21T12:15:21;6.68;;;6.07;;
4214;SDS011;2121;48.062;7.850;2023-08-21T12:17:47;7.57;;;6.93;;
4214;SDS011;2121;48.062;7.850;2023-08-21T12:20:13;10.50;;;5.97;;
4214;SDS011;2121;48.062;7.850;2023-08-21T12:22:39;6.32;;;5.57;;
4214;SDS011;2121;48.062;7.850;2023-08-21T12:25:07;10.85;;;6.75;;
4214;SDS011;2121;48.062;7.850;2023-08-21T12:27:34;12.27;;;5.63;;
4214;SDS011;2121;48.062;7.850;2023-08-21T12:30:00;6.35;;;5.72;;
4214;SDS011;2121;48.062;7.850;2023-08-21T12:32:26;7.03;;;5.97;;
4214;SDS011;2121;48.062;7.850;2023-08-21T12:34:52;6.10;;;5.60;;
4214;SDS011;2121;48.062;7.850;2023-08-21T12:37:18;7.85;;;6.40;;
4214;SDS011;2121;48.062;7.850;2023-08-21T12:39:44;6.47;;;5.65;;
4214;SDS011;2121;48.062;7.850;2023-08-21T12:42:09;5.18;;;4.80;;
4214;SDS011;2121;48.062;7.850;2023-08-21T12:44:35;6.35;;;5.75;;
4214;SDS011;2121;48.062;7.850;2023-08-21T12:47:01;6.95;;;5.13;;
4214;SDS011;2121;48.062;7.850;2023-08-21T12:49:27;5.03;;;4.70;;
4214;SDS011;2121;48.062;7.850;2023-08-21T12:51:53;5.03;;;4.63;;
4214;SDS011;2121;48.062;7.850;2023-08-21T12:54:20;6.05;;;5.07;;
4214;SDS011;2121;48.062;7.850;2023-08-21T12:56:46;13.18;;;4.97;;
4214;SDS011;2121;48.062;7.850;2023-08-21T12:59:12;5.45;;;4.95;;
4214;SDS011;2121;48.062;7.850;2023-08-21T13:01:39;7.05;;;4.15;;
4214;SDS011;2121;48.062;7.850;2023-08-21T13:04:04;5.35;;;4.85;;
4214;SDS011;2121;48.062;7.850;2023-08-21T13:06:30;7.00;;;4.70;;
4214;SDS011;2121;48.062;7.850;2023-08-21T13:08:56;6.03;;;4.55;;
4214;SDS011;2121;48.062;7.850;2023-08-21T13:11:22;5.43;;;4.15;;
4214;SDS011;2121;48.062;7.850;2023-08-21T13:13:48;5.15;;;4.57;;
4214;SDS011;2121;48.062;7.850;2023-08-21T13:16:13;6.97;;;4.70;;
4214;SDS011;2121;48.062;7.850;2023-08-21T13:18:39;5.38;;;4.80;;
4214;SDS011;2121;48.062;7.850;2023-08-21T13:21:05;5.35;;;4.28;;
4214;SDS011;2121;48.062;7.850;2023-08-21T13:23:31;6.20;;;4.53;;
4214;SDS011;2121;48.062;7.850;2023-08-21T13:25:59;5.95;;;5.10;;
4214;SDS011;2121;48.062;7.850;2023-08-21T13:28:25;11.85;;;4.78;;
4214;SDS011;2121;48.062;7.850;2023-08-21T13:30:50;7.25;;;4.43;;
4214;SDS011;2121;48.062;7.850;2023-08-21T13:33:17;4.70;;;4.30;;
4214;SDS011;2121;48.062;7.850;2023-08-21T13:35:46;4.45;;;4.25;;
4214;SDS011;2121;48.062;7.850;2023-08-21T13:38:12;5.10;;;4.47;;
4214;SDS011;2121;48.062;7.850;2023-08-21T13:40:39;9.52;;;4.20;;
4214;SDS011;2121;48.062;7.850;2023-08-21T13:43:08;14.32;;;4.47;;
4214;SDS011;2121;48.062;7.850;2023-08-21T13:45:35;5.35;;;4.85;;
4214;SDS011;2121;48.062;7.850;2023-08-21T13:48:01;7.68;;;5.05;;
4214;SDS011;2121;48.062;7.850;2023-08-21T13:50:29;5.45;;;4.95;;
4214;SDS011;2121;48.062;7.850;2023-08-21T13:52:54;5.72;;;5.22;;
4214;SDS011;2121;48.062;7.850;2023-08-21T13:55:21;5.32;;;4.88;;
4214;SDS011;2121;48.062;7.850;2023-08-21T13:57:48;6.60;;;5.18;;
4214;SDS011;2121;48.062;7.850;2023-08-21T14:00:14;7.03;;;4.95;;
4214;SDS011;2121;48.062;7.850;2023-08-21T14:02:42;6.57;;;4.90;;
4214;SDS011;2121;48.062;7.850;2023-08-21T14:05:08;6.53;;;4.53;;
4214;SDS011;2121;48.062;7.850;2023-08-21T14:07:36;9.00;;;5.65;;
4214;SDS011;2121;48.062;7.850;2023-08-21T14:10:02;7.47;;;5.32;;
4214;SDS011;2121;48.062;7.850;2023-08-21T14:12:32;5.43;;;5.03;;
4214;SDS011;2121;48.062;7.850;2023-08-21T14:14:58;8.02;;;5.55;;
4214;SDS011;2121;48.062;7.850;2023-08-21T14:17:25;5.90;;;5.15;;
4214;SDS011;2121;48.062;7.850;2023-08-21T14:19:51;10.18;;;5.70;;
4214;SDS011;2121;48.062;7.850;2023-08-21T14:22:18;6.30;;;5.70;;
4214;SDS011;2121;48.062;7.850;2023-08-21T14:24:44;7.35;;;4.40;;
4214;SDS011;2121;48.062;7.850;2023-08-21T14:27:10;11.25;;;4.75;;
4214;SDS011;2121;48.062;7.850;2023-08-21T14:29:35;4.70;;;4.38;;
4214;SDS011;2121;48.062;7.850;2023-08-21T14:32:01;4.22;;;3.83;;
4214;SDS011;2121;48.062;7.850;2023-08-21T14:34:27;7.55;;;4.13;;
4214;SDS011;2121;48.062;7.850;2023-08-21T14:36:53;3.65;;;3.28;;
4214;SDS011;2121;48.062;7.850;2023-08-21T14:39:21;10.27;;;3.85;;
4214;SDS011;2121;48.062;7.850;2023-08-21T14:41:47;4.82;;;3.20;;
4214;SDS011;2121;48.062;7.850;2023-08-21T14:44:18;5.50;;;4.07;;
4214;SDS011;2121;48.062;7.850;2023-08-21T14:46:44;4.38;;;3.10;;
4214;SDS011;2121;48.062;7.850;2023-08-21T14:49:10;3.83;;;3.47;;
4214;SDS011;2121;48.062;7.850;2023-08-21T14:51:35;3.63;;;3.30;;
4214;SDS011;2121;48.062;7.850;2023-08-21T14:54:02;3.47;;;3.17;;
4214;SDS011;2121;48.062;7.850;2023-08-21T14:56:28;4.05;;;3.50;;
4214;SDS011;2121;48.062;7.850;2023-08-21T14:58:53;7.00;;;3.58;;
4214;SDS011;2121;48.062;7.850;2023-08-21T15:01:19;4.88;;;3.90;;
4214;SDS011;2121;48.062;7.850;2023-08-21T15:03:45;4.20;;;3.80;;
4214;SDS011;2121;48.062;7.850;2023-08-21T15:06:10;4.30;;;4.00;;
4214;SDS011;2121;48.062;7.850;2023-08-21T15:08:37;3.97;;;3.65;;
4214;SDS011;2121;48.062;7.850;2023-08-21T15:11:04;5.13;;;3.67;;